Time;durP1;ratioP1;P1;durP2;ratioP2;P2;SDS_P1;SDS_P2;PMS_P1;PMS_P2;Temp;Humidity;BMP_temperature;BMP_pressure;BME280_temperature;BME280_humidity;BME280_pressure;Samples;Min_cycle;Max_cycle;Signal;HPM_P1;HPM_P2
2022/03/25 00:01:04;;;;;;;33.67;17.23;;;8.50;84.60;;;;;;6670208;88;20194;-76
2022/03/25 00:11:05;;;;;;;33.80;16.40;;;8.40;86.60;;;;;;6740312;88;20747;-76
2022/03/25 00:21:05;;;;;;;35.25;16.98;;;8.30;89.10;;;;;;6740230;88;20201;-76
2022/03/25 00:31:09;;;;;;;34.08;16.50;;;8.30;90.70;;;;;;6699038;88;21134;-76
2022/03/25 00:41:12;;;;;;;33.42;17.05;;;8.10;90.60;;;;;;6736536;88;20604;-77
2022/03/25 00:51:13;;;;;;;33.92;16.40;;;7.90;92.20;;;;;;6723364;88;20235;-76
2022/03/25 01:01:15;;;;;;;37.22;17.17;;;7.70;93.00;;;;;;6721581;88;20185;-76
2022/03/25 01:11:15;;;;;;;40.70;16.90;;;7.70;94.60;;;;;;6735441;88;20701;-76
2022/03/25 01:21:17;;;;;;;34.40;17.52;;;7.50;95.50;;;;;;6737406;88;20202;-76
2022/03/25 01:31:19;;;;;;;37.35;17.08;;;7.50;95.80;;;;;;6724929;88;20229;-78
2022/03/25 01:41:20;;;;;;;39.90;17.15;;;7.20;97.30;;;;;;6725009;88;20234;-76
2022/03/25 01:51:34;;;;;;;31.25;16.12;;;7.10;99.40;;;;;;6737828;88;20176;-76
2022/03/25 02:01:35;;;;;;;35.22;17.23;;;7.00;99.70;;;;;;6735263;88;20216;-76
2022/03/25 02:11:35;;;;;;;34.38;17.35;;;6.60;99.90;;;;;;6722430;88;20206;-75
2022/03/25 02:21:40;;;;;;;37.97;17.17;;;6.70;99.90;;;;;;6735175;88;20201;-76
2022/03/25 02:31:41;;;;;;;33.88;16.70;;;6.60;99.90;;;;;;6738877;88;20500;-76
2022/03/25 02:41:42;;;;;;;34.50;17.50;;;6.50;99.90;;;;;;6734917;88;20277;-78
2022/03/25 02:51:42;;;;;;;37.00;17.90;;;6.40;99.90;;;;;;6749728;88;20668;-76
2022/03/25 03:01:43;;;;;;;35.15;17.27;;;6.20;99.90;;;;;;6729852;88;20215;-76
2022/03/25 03:11:44;;;;;;;36.95;16.65;;;6.20;99.90;;;;;;6737625;88;20244;-76
2022/03/25 03:21:45;;;;;;;35.70;17.30;;;6.20;99.90;;;;;;6737817;88;20268;-76
2022/03/25 03:31:46;;;;;;;39.70;17.85;;;6.20;99.90;;;;;;6740724;88;20702;-76
2022/03/25 03:51:50;;;;;;;34.15;18.60;;;6.00;99.90;;;;;;6744014;88;20789;-79
2022/03/25 04:01:51;;;;;;;33.95;17.15;;;5.90;99.90;;;;;;6744318;88;20306;-78
2022/03/25 04:11:52;;;;;;;33.30;16.27;;;5.80;99.90;;;;;;6745147;88;20195;-78
2022/03/25 04:21:52;;;;;;;37.90;17.90;;;5.70;99.90;;;;;;6743795;88;20502;-79
2022/03/25 04:31:53;;;;;;;35.20;17.87;;;5.70;99.90;;;;;;6743777;88;20221;-78
2022/03/25 04:41:54;;;;;;;33.70;16.60;;;5.50;99.90;;;;;;6743382;88;20196;-78
2022/03/25 04:51:54;;;;;;;36.28;16.92;;;5.50;99.90;;;;;;6743145;88;20191;-79
2022/03/25 05:01:55;;;;;;;41.30;19.40;;;5.40;99.90;;;;;;6744160;88;20193;-79
2022/03/25 05:11:55;;;;;;;37.47;18.55;;;5.40;99.90;;;;;;6744778;88;20181;-79
2022/03/25 05:21:56;;;;;;;36.50;17.87;;;5.10;99.90;;;;;;6745376;88;20670;-78
2022/03/25 05:31:56;;;;;;;39.13;18.35;;;5.20;99.90;;;;;;6743880;88;20211;-79
2022/03/25 05:41:58;;;;;;;40.92;19.55;;;4.90;99.90;;;;;;6743748;88;20197;-79
2022/03/25 05:51:58;;;;;;;39.00;18.50;;;4.90;99.90;;;;;;6726987;88;20205;-79
2022/03/25 06:01:59;;;;;;;42.13;18.73;;;4.80;99.90;;;;;;6726246;88;20197;-78
2022/03/25 06:11:59;;;;;;;40.53;19.17;;;4.80;99.90;;;;;;6727605;88;20575;-79
2022/03/25 06:22:00;;;;;;;35.72;17.75;;;5.10;99.90;;;;;;6729745;88;20523;-79
2022/03/25 06:32:01;;;;;;;43.15;19.95;;;5.20;99.90;;;;;;6735199;88;20561;-79
2022/03/25 06:42:04;;;;;;;40.60;18.97;;;5.10;99.90;;;;;;6734420;88;20181;-78
2022/03/25 06:52:14;;;;;;;41.83;19.17;;;5.70;99.90;;;;;;6748469;88;20887;-78
2022/03/25 07:02:16;;;;;;;41.65;19.27;;;5.80;99.90;;;;;;6749505;88;20271;-79
2022/03/25 07:12:17;;;;;;;40.63;19.58;;;6.20;99.90;;;;;;6754056;87;20218;-80
2022/03/25 07:22:18;;;;;;;40.15;20.05;;;6.70;99.90;;;;;;6750954;88;20243;-79
2022/03/25 07:32:19;;;;;;;45.83;20.92;;;7.10;99.90;;;;;;6765988;87;20217;-80
2022/03/25 07:42:19;;;;;;;42.80;21.27;;;8.00;99.90;;;;;;6746209;88;20200;-83
2022/03/25 07:52:22;;;;;;;46.97;22.13;;;8.70;99.90;;;;;;6752795;88;20403;-80
2022/03/25 08:02:22;;;;;;;44.75;22.48;;;9.20;99.90;;;;;;6747551;88;20205;-80
2022/03/25 08:12:23;;;;;;;44.30;21.62;;;10.10;99.90;;;;;;6757576;88;20192;-80
2022/03/25 08:22:24;;;;;;;48.00;23.48;;;10.70;99.90;;;;;;6743915;88;20184;-79
2022/03/25 08:32:24;;;;;;;47.53;24.05;;;11.50;98.40;;;;;;6748848;88;20189;-79
2022/03/25 08:42:25;;;;;;;50.43;24.37;;;11.90;96.60;;;;;;6751298;88;20202;-79
2022/03/25 08:52:25;;;;;;;49.57;26.03;;;12.90;95.00;;;;;;6740187;88;20187;-78
2022/03/25 09:02:26;;;;;;;49.65;26.50;;;13.70;93.50;;;;;;6768373;88;20612;-79
2022/03/25 09:12:27;;;;;;;46.78;25.77;;;14.70;92.20;;;;;;6764136;88;20232;-79
2022/03/25 09:22:27;;;;;;;52.03;27.45;;;15.30;90.60;;;;;;6756295;88;20192;-79
2022/03/25 09:32:28;;;;;;;55.72;28.75;;;15.60;89.50;;;;;;6748066;88;20219;-81
2022/03/25 09:52:34;;;;;;;53.85;27.13;;;17.80;84.40;;;;;;6769171;88;20197;-85
2022/03/25 10:02:34;;;;;;;42.42;23.50;;;18.40;79.00;;;;;;6748720;88;20170;-85
2022/03/25 10:12:36;;;;;;;44.33;25.15;;;18.50;75.90;;;;;;6748659;88;20191;-83
2022/03/25 10:22:37;;;;;;;41.85;22.10;;;19.50;74.20;;;;;;6748502;88;20224;-81
2022/03/25 10:32:39;;;;;;;40.88;23.30;;;19.90;71.60;;;;;;6762520;87;20165;-81
2022/03/25 10:43:04;;;;;;;38.60;21.55;;;20.60;71.20;;;;;;6766812;87;20152;-82
2022/03/25 10:53:11;;;;;;;34.20;19.70;;;21.00;69.00;;;;;;6747124;88;20200;-82
2022/03/25 11:03:14;;;;;;;32.88;18.55;;;22.10;66.10;;;;;;6695644;88;20230;-82
2022/03/25 11:13:17;;;;;;;32.13;17.05;;;21.40;64.20;;;;;;6697438;88;20180;-81
2022/03/25 11:23:26;;;;;;;27.33;16.45;;;22.30;62.40;;;;;;6698467;88;20151;-81
2022/03/25 11:33:27;;;;;;;30.83;15.32;;;23.00;60.30;;;;;;6695107;89;20258;-80
2022/03/25 11:43:28;;;;;;;28.48;15.15;;;23.10;58.60;;;;;;6699383;88;20206;-81
2022/03/25 11:53:30;;;;;;;26.00;14.23;;;23.50;58.40;;;;;;6732098;88;21006;-81
2022/03/25 12:03:49;;;;;;;28.02;14.57;;;23.50;57.20;;;;;;6744022;88;20158;-81
2022/03/25 12:13:56;;;;;;;25.33;14.05;;;24.00;55.90;;;;;;6761692;87;20166;-81
2022/03/25 12:23:58;;;;;;;27.20;14.65;;;23.90;55.00;;;;;;6768186;87;20160;-82
2022/03/25 12:34:00;;;;;;;29.27;14.55;;;23.50;54.90;;;;;;6768194;87;20174;-81
2022/03/25 12:44:02;;;;;;;27.92;14.57;;;23.10;54.80;;;;;;6768167;87;20203;-81
2022/03/25 12:54:15;;;;;;;26.70;14.20;;;23.30;54.60;;;;;;6768315;87;20260;-82
2022/03/25 13:04:28;;;;;;;27.87;17.02;;;24.20;53.00;;;;;;6731200;88;20174;-81
2022/03/25 13:14:28;;;;;;;28.83;16.80;;;24.80;51.60;;;;;;6731169;88;20206;-81
2022/03/25 13:24:49;;;;;;;29.35;17.30;;;25.30;50.30;;;;;;6713837;88;20792;-81
2022/03/25 13:35:07;;;;;;;29.02;15.80;;;24.70;49.40;;;;;;6686165;88;20166;-81
2022/03/25 13:45:11;;;;;;;28.20;14.50;;;24.90;50.30;;;;;;6696498;89;20324;-81
2022/03/25 13:55:19;;;;;;;27.50;15.00;;;25.10;49.80;;;;;;6660431;89;20494;-81
2022/03/25 14:05:25;;;;;;;24.27;13.77;;;25.30;49.30;;;;;;6701863;88;20689;-82
2022/03/25 14:15:27;;;;;;;28.90;13.95;;;25.20;47.70;;;;;;6713177;88;20305;-82
2022/03/25 14:25:32;;;;;;;26.33;13.80;;;24.70;48.40;;;;;;6721226;88;20255;-82
2022/03/25 14:35:33;;;;;;;22.45;14.32;;;24.20;48.60;;;;;;6710647;88;20198;-83
2022/03/25 14:45:33;;;;;;;25.20;15.15;;;24.40;48.50;;;;;;6726467;88;20189;-83
2022/03/25 14:55:35;;;;;;;27.33;15.85;;;24.30;47.70;;;;;;6749876;87;20180;-82
2022/03/25 15:05:37;;;;;;;29.33;15.88;;;24.50;46.20;;;;;;6767761;87;20212;-82
2022/03/25 15:15:45;;;;;;;31.17;16.02;;;22.80;48.00;;;;;;6763840;88;20177;-81
2022/03/25 15:25:46;;;;;;;27.50;16.10;;;22.30;48.10;;;;;;6763975;88;20168;-82
2022/03/25 15:35:46;;;;;;;26.50;15.43;;;22.60;47.20;;;;;;6765565;88;20239;-81
2022/03/25 15:45:47;;;;;;;25.70;15.57;;;22.20;48.00;;;;;;6751884;77;20652;-76
2022/03/25 15:55:47;;;;;;;25.73;14.73;;;22.40;48.40;;;;;;6727282;88;20311;-76
2022/03/25 16:05:49;;;;;;;24.87;14.93;;;22.50;48.50;;;;;;6732462;88;20203;-76
2022/03/25 16:15:50;;;;;;;27.20;14.48;;;21.80;49.00;;;;;;6745554;88;20166;-76
2022/03/25 16:25:51;;;;;;;27.85;14.10;;;21.80;48.80;;;;;;6741933;88;20349;-76
2022/03/25 16:35:51;;;;;;;23.12;13.23;;;21.50;48.50;;;;;;6729955;88;20604;-77
2022/03/25 16:45:54;;;;;;;21.35;13.27;;;20.90;47.80;;;;;;6740212;88;20567;-76
2022/03/25 16:55:55;;;;;;;22.23;13.27;;;20.60;48.20;;;;;;6734041;88;20244;-77
2022/03/25 17:05:55;;;;;;;23.85;12.77;;;20.30;49.40;;;;;;6714760;88;20617;-77
2022/03/25 17:15:56;;;;;;;21.63;12.10;;;19.80;50.60;;;;;;6725288;88;20209;-76
2022/03/25 17:25:56;;;;;;;25.48;13.10;;;19.30;51.60;;;;;;6732029;88;20185;-77
2022/03/25 17:35:57;;;;;;;22.50;9.90;;;18.90;52.00;;;;;;6735366;88;20227;-75
2022/03/25 17:45:58;;;;;;;19.97;8.40;;;18.50;53.10;;;;;;6737857;88;20232;-78
2022/03/25 17:55:59;;;;;;;14.82;6.50;;;18.00;53.90;;;;;;6732594;88;20228;-78
2022/03/25 18:06:00;;;;;;;15.02;6.68;;;17.50;54.00;;;;;;6728639;88;20210;-76
2022/03/25 18:16:01;;;;;;;14.23;6.30;;;16.90;54.80;;;;;;6730774;88;20199;-77
2022/03/25 18:26:02;;;;;;;14.02;5.93;;;16.60;55.00;;;;;;6729178;88;20217;-77
2022/03/25 18:36:04;;;;;;;13.57;6.18;;;16.10;56.20;;;;;;6731433;88;20714;-77
2022/03/25 18:46:05;;;;;;;16.98;6.07;;;15.70;57.20;;;;;;6732489;88;20201;-78
2022/03/25 18:56:06;;;;;;;16.30;6.45;;;15.20;57.90;;;;;;6735663;88;20488;-76
2022/03/25 19:06:07;;;;;;;15.88;6.87;;;14.80;59.00;;;;;;6735924;88;20219;-77
2022/03/25 19:16:09;;;;;;;15.65;7.00;;;14.50;59.30;;;;;;6732748;88;20209;-78
2022/03/25 19:26:10;;;;;;;17.33;7.53;;;14.20;60.40;;;;;;6734077;88;20746;-76
2022/03/25 19:36:11;;;;;;;19.02;8.25;;;14.00;61.50;;;;;;6734696;88;20197;-76
2022/03/25 19:46:15;;;;;;;20.50;8.95;;;13.80;62.20;;;;;;6735763;88;20732;-79
2022/03/25 19:56:15;;;;;;;19.15;8.82;;;13.70;62.60;;;;;;6741224;88;20355;-76
2022/03/25 20:06:16;;;;;;;26.33;12.35;;;13.50;63.70;;;;;;6736466;88;20190;-77
2022/03/25 20:16:16;;;;;;;19.95;8.55;;;13.20;64.20;;;;;;6735497;88;20181;-78
2022/03/25 20:26:19;;;;;;;18.40;9.40;;;13.10;64.70;;;;;;6736830;88;20196;-77
2022/03/25 20:36:24;;;;;;;19.25;9.15;;;12.90;65.50;;;;;;6733341;88;20938;-77
2022/03/25 20:46:25;;;;;;;22.42;10.00;;;12.60;66.60;;;;;;6732977;88;20617;-76
2022/03/25 20:56:26;;;;;;;19.48;9.85;;;12.60;67.80;;;;;;6732924;88;20811;-77
2022/03/25 21:06:26;;;;;;;18.98;9.50;;;12.40;68.50;;;;;;6733971;88;20310;-76
2022/03/25 21:16:29;;;;;;;20.85;10.00;;;12.30;68.30;;;;;;6734888;88;20295;-77
2022/03/25 21:26:29;;;;;;;26.25;9.85;;;12.10;69.40;;;;;;6733925;88;20224;-77
2022/03/25 21:36:30;;;;;;;22.60;9.90;;;12.10;68.80;;;;;;6734396;88;20228;-77
2022/03/25 21:46:30;;;;;;;25.75;11.07;;;11.70;70.10;;;;;;6736360;88;20214;-76
2022/03/25 21:56:31;;;;;;;22.52;11.12;;;11.60;71.10;;;;;;6738321;88;20668;-77
2022/03/25 22:06:31;;;;;;;22.17;11.00;;;11.40;72.20;;;;;;6742048;88;20211;-77
2022/03/25 22:16:32;;;;;;;31.62;12.68;;;11.30;72.00;;;;;;6738136;88;20202;-77
2022/03/25 22:26:33;;;;;;;28.52;12.93;;;11.10;72.90;;;;;;6740972;88;20217;-76
2022/03/25 22:36:33;;;;;;;23.90;11.05;;;11.10;73.50;;;;;;6740952;88;20196;-77
2022/03/25 22:46:34;;;;;;;26.92;12.15;;;10.60;72.80;;;;;;6743245;88;20719;-76
2022/03/25 22:56:34;;;;;;;23.23;11.15;;;10.80;74.80;;;;;;6741414;88;20762;-76
2022/03/25 23:06:36;;;;;;;26.30;11.75;;;10.50;75.40;;;;;;6742888;88;20219;-77
2022/03/25 23:16:37;;;;;;;28.75;11.88;;;10.40;76.10;;;;;;6747442;88;20243;-77
2022/03/25 23:26:40;;;;;;;27.33;11.23;;;10.10;76.70;;;;;;6745669;88;20321;-77
2022/03/25 23:36:43;;;;;;;26.33;11.85;;;9.70;77.10;;;;;;6744283;88;20495;-76
2022/03/25 23:46:44;;;;;;;24.42;10.70;;;9.60;78.60;;;;;;6745208;88;20358;-77
2022/03/25 23:56:45;;;;;;;23.02;10.90;;;9.40;79.50;;;;;;6742326;88;20197;-76
